Time,TemperatureF,DewpointF,PressureIn,WindDirection,WindDirectionDegrees,WindSpeedMPH,WindSpeedGustMPH,Humidity,HourlyPrecipIn,Conditions,Clouds,dailyrainin,SoftwareType,DateUTC
2013-02-03 00:11:00,61.4,59.0,30.22,East,96,2.0,2.0,93,0.00,,,0.00,weatherlink.com 1.10,2013-02-03 06:11:00,
2013-02-03 00:26:00,61.5,60.0,30.22,East,96,0.0,2.0,93,0.00,,,0.00,weatherlink.com 1.10,2013-02-03 06:26:00,
2013-02-03 00:42:00,61.5,60.0,30.22,East,96,0.0,2.0,93,0.00,,,0.00,weatherlink.com 1.10,2013-02-03 06:42:00,
2013-02-03 00:56:00,61.5,60.0,30.21,East,96,1.0,2.0,93,0.00,,,0.00,weatherlink.com 1.10,2013-02-03 06:56:00,
2013-02-03 01:12:00,61.5,60.0,30.22,East,96,0.0,1.0,93,0.00,,,0.00,weatherlink.com 1.10,2013-02-03 07:12:00,
2013-02-03 01:27:00,61.5,60.0,30.21,East,96,1.0,1.0,93,0.00,,,0.00,weatherlink.com 1.10,2013-02-03 07:27:00,
2013-02-03 01:42:00,61.4,59.0,30.21,East,96,1.0,1.0,93,0.00,,,0.00,weatherlink.com 1.10,2013-02-03 07:42:00,
2013-02-03 01:57:00,61.3,60.0,30.21,East,96,0.0,0.0,94,0.00,,,0.00,weatherlink.com 1.10,2013-02-03 07:57:00,
2013-02-03 02:12:00,61.3,60.0,30.21,East,96,0.0,0.0,94,0.00,,,0.00,weatherlink.com 1.10,2013-02-03 08:12:00,
2013-02-03 02:27:00,61.0,59.0,30.21,East,96,0.0,1.0,94,0.00,,,0.00,weatherlink.com 1.10,2013-02-03 08:27:00,
2013-02-03 02:42:00,60.6,59.0,30.21,East,96,0.0,1.0,94,0.00,,,0.00,weatherlink.com 1.10,2013-02-03 08:42:00,
2013-02-03 02:57:00,60.6,59.0,30.20,East,96,1.0,1.0,94,0.00,,,0.00,weatherlink.com 1.10,2013-02-03 08:57:00,
2013-02-03 03:12:00,60.4,59.0,30.21,East,96,0.0,1.0,94,0.00,,,0.00,weatherlink.com 1.10,2013-02-03 09:12:00,
2013-02-03 03:27:00,60.4,59.0,30.21,East,96,1.0,1.0,94,0.00,,,0.00,weatherlink.com 1.10,2013-02-03 09:27:00,
2013-02-03 03:42:00,60.5,59.0,30.20,East,96,0.0,0.0,94,0.00,,,0.00,weatherlink.com 1.10,2013-02-03 09:42:00,
2013-02-03 03:57:00,60.5,59.0,30.20,East,96,0.0,0.0,95,0.00,,,0.00,weatherlink.com 1.10,2013-02-03 09:57:00,
2013-02-03 04:12:00,59.9,59.0,30.21,East,96,0.0,0.0,95,0.00,,,0.00,weatherlink.com 1.10,2013-02-03 10:12:00,
2013-02-03 04:27:00,58.8,57.0,30.21,ENE,64,1.0,4.0,95,0.00,,,0.00,weatherlink.com 1.10,2013-02-03 10:27:00,
2013-02-03 04:42:00,59.6,58.0,30.21,ENE,64,0.0,1.0,95,0.00,,,0.00,weatherlink.com 1.10,2013-02-03 10:42:00,
2013-02-03 04:57:00,59.9,59.0,30.21,ENE,64,1.0,1.0,95,0.00,,,0.00,weatherlink.com 1.10,2013-02-03 10:57:00,
2013-02-03 05:12:00,59.8,58.0,30.23,NNE,12,2.0,10.0,95,0.00,,,0.00,weatherlink.com 1.10,2013-02-03 11:12:00,
2013-02-03 05:27:00,60.3,59.0,30.23,NNE,12,4.0,7.0,95,0.00,,,0.00,weatherlink.com 1.10,2013-02-03 11:27:00,
2013-02-03 05:42:00,59.8,58.0,30.23,North,6,4.0,8.0,95,0.00,,,0.00,weatherlink.com 1.10,2013-02-03 11:42:00,
2013-02-03 05:57:00,59.3,58.0,30.23,NNE,25,6.0,8.0,95,0.00,,,0.00,weatherlink.com 1.10,2013-02-03 11:57:00,
2013-02-03 06:12:00,58.8,57.0,30.24,NNE,28,5.0,8.0,95,0.00,,,0.00,weatherlink.com 1.10,2013-02-03 12:12:00,
2013-02-03 06:27:00,58.6,57.0,30.24,NNW,348,6.0,7.0,95,0.00,,,0.00,weatherlink.com 1.10,2013-02-03 12:27:00,
2013-02-03 06:42:00,58.5,57.0,30.24,NNE,27,5.0,8.0,95,0.00,,,0.00,weatherlink.com 1.10,2013-02-03 12:42:00,
2013-02-03 06:57:00,58.2,57.0,30.25,NE,35,5.0,8.0,95,0.00,,,0.00,weatherlink.com 1.10,2013-02-03 12:57:00,
2013-02-03 07:12:00,58.2,57.0,30.24,NNE,29,5.0,6.0,95,0.00,,,0.00,weatherlink.com 1.10,2013-02-03 13:12:00,
2013-02-03 07:27:00,58.0,57.0,30.24,NNE,20,2.0,6.0,95,0.00,,,0.00,weatherlink.com 1.10,2013-02-03 13:27:00,
2013-02-03 07:57:00,58.6,57.0,30.25,NNE,21,5.0,6.0,95,0.01,,,0.01,weatherlink.com 1.10,2013-02-03 13:57:00,
2013-02-03 08:12:00,59.4,58.0,30.25,NNE,19,3.0,7.0,95,0.01,,,0.01,weatherlink.com 1.10,2013-02-03 14:12:00,
2013-02-03 08:27:00,60.3,59.0,30.26,NE,34,5.0,7.0,95,0.01,,,0.01,weatherlink.com 1.10,2013-02-03 14:27:00,
2013-02-03 08:42:00,61.2,60.0,30.26,NNE,25,6.0,8.0,94,0.00,,,0.01,weatherlink.com 1.10,2013-02-03 14:42:00,
2013-02-03 08:58:00,62.4,61.0,30.26,NNE,25,4.0,7.0,94,0.00,,,0.01,weatherlink.com 1.10,2013-02-03 14:58:00,
2013-02-03 09:13:00,63.0,60.0,30.27,ENE,65,6.0,9.0,91,0.00,,,0.01,weatherlink.com 1.10,2013-02-03 15:13:00,
2013-02-03 09:27:00,63.5,60.0,30.28,NNE,29,6.0,11.0,88,0.00,,,0.01,weatherlink.com 1.10,2013-02-03 15:27:00,
2013-02-03 09:43:00,64.3,60.0,30.28,NE,46,5.0,9.0,86,0.00,,,0.01,weatherlink.com 1.10,2013-02-03 15:43:00,
2013-02-03 09:57:00,65.3,60.0,30.27,NE,55,7.0,10.0,83,0.00,,,0.01,weatherlink.com 1.10,2013-02-03 15:57:00,
2013-02-03 10:12:00,65.4,59.0,30.28,North,8,8.0,11.0,79,0.00,,,0.01,weatherlink.com 1.10,2013-02-03 16:12:00,
2013-02-03 10:28:00,66.2,59.0,30.28,NE,52,8.0,10.0,77,0.00,,,0.01,weatherlink.com 1.10,2013-02-03 16:28:00,
2013-02-03 10:43:00,66.8,59.0,30.28,NNE,26,7.0,10.0,76,0.00,,,0.01,weatherlink.com 1.10,2013-02-03 16:43:00,
2013-02-03 10:58:00,66.4,59.0,30.28,NE,50,5.0,10.0,76,0.00,,,0.01,weatherlink.com 1.10,2013-02-03 16:58:00,
2013-02-03 11:13:00,66.8,59.0,30.27,ENE,63,8.0,11.0,76,0.00,,,0.01,weatherlink.com 1.10,2013-02-03 17:13:00,
2013-02-03 11:28:00,66.5,58.0,30.26,ENE,63,10.0,11.0,75,0.00,,,0.01,weatherlink.com 1.10,2013-02-03 17:28:00,
2013-02-03 11:43:00,66.1,58.0,30.25,East,80,8.0,11.0,76,0.00,,,0.01,weatherlink.com 1.10,2013-02-03 17:43:00,
2013-02-03 11:58:00,66.4,58.0,30.25,ENE,67,9.0,12.0,73,0.00,,,0.01,weatherlink.com 1.10,2013-02-03 17:58:00,
2013-02-03 12:13:00,67.4,58.0,30.25,ENE,71,6.0,11.0,73,0.00,,,0.01,weatherlink.com 1.10,2013-02-03 18:13:00,
2013-02-03 12:28:00,67.3,58.0,30.23,East,90,10.0,11.0,73,0.00,,,0.01,weatherlink.com 1.10,2013-02-03 18:28:00,
2013-02-03 12:43:00,66.7,59.0,30.23,NE,45,7.0,12.0,75,0.00,,,0.01,weatherlink.com 1.10,2013-02-03 18:43:00,
2013-02-03 12:58:00,67.0,59.0,30.22,East,85,8.0,12.0,75,0.00,,,0.01,weatherlink.com 1.10,2013-02-03 18:58:00,
2013-02-03 13:13:00,66.6,58.0,30.20,East,79,8.0,13.0,75,0.00,,,0.01,weatherlink.com 1.10,2013-02-03 19:13:00,
2013-02-03 13:28:00,66.1,58.0,30.19,ENE,74,12.0,14.0,76,0.00,,,0.01,weatherlink.com 1.10,2013-02-03 19:28:00,
2013-02-03 13:58:00,64.5,59.0,30.18,ENE,77,8.0,14.0,81,0.00,,,0.01,weatherlink.com 1.10,2013-02-03 19:58:00,
2013-02-03 14:13:00,64.4,58.0,30.17,ENE,77,11.0,14.0,81,0.00,,,0.01,weatherlink.com 1.10,2013-02-03 20:13:00,
2013-02-03 14:28:00,63.9,58.0,30.16,East,81,7.0,15.0,82,0.00,,,0.01,weatherlink.com 1.10,2013-02-03 20:28:00,
2013-02-03 14:43:00,64.4,59.0,30.15,NE,53,8.0,15.0,83,0.00,,,0.01,weatherlink.com 1.10,2013-02-03 20:43:00,
2013-02-03 14:58:00,64.9,60.0,30.15,East,92,8.0,14.0,83,0.00,,,0.01,weatherlink.com 1.10,2013-02-03 20:58:00,
2013-02-03 15:13:00,64.3,60.0,30.14,ESE,104,7.0,13.0,85,0.00,,,0.01,weatherlink.com 1.10,2013-02-03 21:13:00,
2013-02-03 15:28:00,64.2,61.0,30.14,East,81,8.0,14.0,88,0.00,,,0.01,weatherlink.com 1.10,2013-02-03 21:28:00,
2013-02-03 15:43:00,64.3,61.0,30.13,ENE,63,9.0,14.0,88,0.00,,,0.01,weatherlink.com 1.10,2013-02-03 21:43:00,
2013-02-03 15:58:00,64.4,61.0,30.13,East,99,9.0,12.0,88,0.00,,,0.01,weatherlink.com 1.10,2013-02-03 21:58:00,
2013-02-03 16:13:00,64.2,61.0,30.13,East,90,9.0,12.0,88,0.00,,,0.01,weatherlink.com 1.10,2013-02-03 22:13:00,
2013-02-03 16:28:00,63.7,61.0,30.13,East,96,10.0,13.0,89,0.00,,,0.01,weatherlink.com 1.10,2013-02-03 22:28:00,
2013-02-03 16:43:00,63.9,61.0,30.13,East,96,5.0,12.0,90,0.00,,,0.01,weatherlink.com 1.10,2013-02-03 22:43:00,
2013-02-03 16:58:00,63.8,61.0,30.12,East,100,8.0,12.0,90,0.00,,,0.01,weatherlink.com 1.10,2013-02-03 22:58:00,
2013-02-03 17:13:00,63.6,61.0,30.12,East,98,8.0,13.0,90,0.00,,,0.01,weatherlink.com 1.10,2013-02-03 23:13:00,
2013-02-03 17:28:00,63.2,61.0,30.12,East,87,6.0,12.0,91,0.00,,,0.01,weatherlink.com 1.10,2013-02-03 23:28:00,
2013-02-03 17:43:00,63.0,61.0,30.11,ESE,111,6.0,11.0,92,0.00,,,0.01,weatherlink.com 1.10,2013-02-03 23:43:00,
2013-02-03 17:58:00,63.0,61.0,30.11,East,94,6.0,11.0,92,0.00,,,0.01,weatherlink.com 1.10,2013-02-03 23:58:00,
2013-02-03 18:14:00,62.9,61.0,30.10,East,97,4.0,9.0,92,0.00,,,0.01,weatherlink.com 1.10,2013-02-04 00:14:00,
2013-02-03 18:28:00,62.9,61.0,30.10,ESE,106,7.0,12.0,92,0.00,,,0.01,weatherlink.com 1.10,2013-02-04 00:28:00,
2013-02-03 18:43:00,62.9,61.0,30.09,East,84,6.0,12.0,92,0.00,,,0.01,weatherlink.com 1.10,2013-02-04 00:43:00,
2013-02-03 18:59:00,63.0,61.0,30.09,ESE,115,8.0,11.0,92,0.00,,,0.01,weatherlink.com 1.10,2013-02-04 00:59:00,
2013-02-03 19:13:00,63.0,60.0,30.09,East,92,8.0,13.0,91,0.00,,,0.01,weatherlink.com 1.10,2013-02-04 01:13:00,
2013-02-03 19:28:00,63.0,60.0,30.09,East,93,9.0,10.0,91,0.00,,,0.01,weatherlink.com 1.10,2013-02-04 01:28:00,
2013-02-03 19:43:00,63.2,60.0,30.09,ESE,106,6.0,12.0,90,0.00,,,0.01,weatherlink.com 1.10,2013-02-04 01:43:00,
2013-02-03 19:59:00,63.2,60.0,30.09,East,99,7.0,12.0,90,0.00,,,0.01,weatherlink.com 1.10,2013-02-04 01:59:00,
2013-02-03 20:14:00,63.3,60.0,30.09,ESE,113,5.0,11.0,90,0.00,,,0.01,weatherlink.com 1.10,2013-02-04 02:14:00,
2013-02-03 20:28:00,63.3,60.0,30.09,ESE,105,14.0,14.0,89,0.00,,,0.01,weatherlink.com 1.10,2013-02-04 02:28:00,
2013-02-03 20:43:00,63.2,60.0,30.09,ESE,113,9.0,11.0,89,0.00,,,0.01,weatherlink.com 1.10,2013-02-04 02:43:00,
2013-02-03 20:58:00,63.2,60.0,30.09,ESE,117,6.0,12.0,89,0.00,,,0.01,weatherlink.com 1.10,2013-02-04 02:58:00,
2013-02-03 21:13:00,63.2,60.0,30.07,ESE,117,7.0,13.0,89,0.00,,,0.01,weatherlink.com 1.10,2013-02-04 03:13:00,
2013-02-03 21:28:00,63.3,60.0,30.07,ESE,117,8.0,14.0,89,0.00,,,0.01,weatherlink.com 1.10,2013-02-04 03:28:00,
2013-02-03 21:44:00,63.2,60.0,30.06,ESE,109,9.0,12.0,89,0.00,,,0.01,weatherlink.com 1.10,2013-02-04 03:44:00,
2013-02-03 21:58:00,63.1,60.0,30.05,SE,125,8.0,12.0,90,0.00,,,0.01,weatherlink.com 1.10,2013-02-04 03:58:00,
2013-02-03 22:13:00,63.0,60.0,30.05,ESE,106,8.0,10.0,90,0.00,,,0.01,weatherlink.com 1.10,2013-02-04 04:13:00,
2013-02-03 22:29:00,63.1,60.0,30.04,ESE,103,6.0,13.0,90,0.00,,,0.01,weatherlink.com 1.10,2013-02-04 04:29:00,
2013-02-03 22:44:00,63.1,60.0,30.04,ESE,122,7.0,12.0,90,0.00,,,0.01,weatherlink.com 1.10,2013-02-04 04:44:00,
2013-02-03 22:59:00,63.0,60.0,30.04,SE,131,7.0,9.0,90,0.00,,,0.01,weatherlink.com 1.10,2013-02-04 04:59:00,
2013-02-03 23:14:00,62.7,60.0,30.04,SSE,152,5.0,9.0,90,0.00,,,0.01,weatherlink.com 1.10,2013-02-04 05:14:00,
2013-02-03 23:29:00,62.7,60.0,30.02,SE,134,7.0,9.0,89,0.00,,,0.01,weatherlink.com 1.10,2013-02-04 05:29:00,
2013-02-03 23:44:00,63.0,59.0,30.03,SE,137,11.0,11.0,87,0.00,,,0.01,weatherlink.com 1.10,2013-02-04 05:44:00,
2013-02-03 23:59:00,63.1,59.0,30.01,SE,140,6.0,11.0,87,0.00,,,0.01,weatherlink.com 1.10,2013-02-04 05:59:00,